Time;durP1;ratioP1;P1;durP2;ratioP2;P2;SDS_P1;SDS_P2;PMS_P1;PMS_P2;Temp;Humidity;BMP_temperature;BMP_pressure;BME280_temperature;BME280_humidity;BME280_pressure;Samples;Min_cycle;Max_cycle;Signal;HPM_P1;HPM_P2
2022/12/13 00:02:04;;;;;;;2.15;1.65;;;-4.20;96.50;;;;;;5049422;28;20787;-71
2022/12/13 00:04:31;;;;;;;7.93;3.03;;;-4.20;96.50;;;;;;5049955;28;20197;-71
2022/12/13 00:06:57;;;;;;;2.05;1.67;;;-4.10;96.40;;;;;;5049775;28;20202;-71
2022/12/13 00:09:24;;;;;;;1.55;1.45;;;-3.90;96.40;;;;;;5049825;28;20205;-71
2022/12/13 00:11:53;;;;;;;3.40;3.20;;;-3.90;96.30;;;;;;5048866;28;20199;-71
2022/12/13 00:14:20;;;;;;;1.45;1.45;;;-3.90;96.40;;;;;;5049906;28;20200;-71
2022/12/13 00:16:49;;;;;;;2.78;2.67;;;-3.90;96.30;;;;;;5049354;28;20210;-71
2022/12/13 00:19:17;;;;;;;2.50;2.30;;;-3.80;96.30;;;;;;5049737;28;20200;-71
2022/12/13 00:21:44;;;;;;;1.83;1.73;;;-3.70;96.20;;;;;;5049050;28;20193;-71
2022/12/13 00:24:11;;;;;;;1.60;1.50;;;-3.70;96.00;;;;;;5049220;28;20690;-71
2022/12/13 00:26:37;;;;;;;2.20;2.10;;;-3.70;96.00;;;;;;5049095;28;20233;-71
2022/12/13 00:29:06;;;;;;;2.80;2.65;;;-3.70;96.00;;;;;;5049714;28;20212;-71
2022/12/13 00:31:34;;;;;;;2.85;2.63;;;-3.90;96.00;;;;;;5049431;28;20237;-71
2022/12/13 00:34:02;;;;;;;5.85;2.53;;;-3.90;96.10;;;;;;5049537;28;20198;-71
2022/12/13 00:36:29;;;;;;;2.75;2.55;;;-3.90;96.30;;;;;;5048966;28;20212;-71
2022/12/13 00:39:01;;;;;;;3.50;2.05;;;-4.10;97.40;;;;;;5048452;28;20192;-71
2022/12/13 00:41:30;;;;;;;1.67;1.58;;;-4.10;96.20;;;;;;5049355;28;20199;-71
2022/12/13 00:43:57;;;;;;;1.95;1.85;;;-4.10;96.40;;;;;;5048710;28;20209;-71
2022/12/13 00:46:24;;;;;;;3.28;3.08;;;-4.10;96.50;;;;;;5048644;28;20224;-71
2022/12/13 00:48:54;;;;;;;3.63;3.42;;;-4.10;96.50;;;;;;5048546;28;20221;-71
2022/12/13 00:51:23;;;;;;;4.47;2.30;;;-4.10;96.60;;;;;;5048790;28;20234;-72
2022/12/13 00:53:50;;;;;;;2.80;2.60;;;-4.20;96.60;;;;;;5048692;28;20282;-71
2022/12/13 00:56:20;;;;;;;1.08;0.98;;;-4.20;96.60;;;;;;5048996;28;20202;-71
2022/12/13 00:58:48;;;;;;;7.47;3.25;;;-4.30;96.60;;;;;;5048564;28;20219;-71
2022/12/13 01:01:16;;;;;;;5.60;3.42;;;-4.30;96.60;;;;;;5048764;28;20682;-71
2022/12/13 01:03:44;;;;;;;2.13;2.03;;;-4.30;96.80;;;;;;5047953;28;20210;-71
2022/12/13 01:06:12;;;;;;;2.70;2.58;;;-4.40;96.70;;;;;;5048256;28;20535;-71
2022/12/13 01:08:40;;;;;;;0.95;0.95;;;-4.40;96.80;;;;;;5048689;28;20202;-71
2022/12/13 01:11:08;;;;;;;3.90;2.70;;;-4.30;96.90;;;;;;5048901;28;20207;-71
2022/12/13 01:13:36;;;;;;;2.28;2.08;;;-4.20;96.90;;;;;;5048591;28;20195;-71
2022/12/13 01:16:04;;;;;;;2.97;2.88;;;-4.20;96.80;;;;;;5047970;28;20199;-71
2022/12/13 01:18:31;;;;;;;2.40;2.30;;;-4.20;96.70;;;;;;5047923;28;20203;-71
2022/12/13 01:20:59;;;;;;;4.20;3.90;;;-4.20;96.70;;;;;;5047934;28;20681;-71
2022/12/13 01:23:27;;;;;;;1.00;1.00;;;-4.20;96.70;;;;;;5048652;28;20200;-71
2022/12/13 01:25:55;;;;;;;2.40;2.25;;;-4.20;96.70;;;;;;5048036;28;20216;-72
2022/12/13 01:28:23;;;;;;;2.80;2.70;;;-4.30;96.50;;;;;;5048852;28;20208;-71
2022/12/13 01:31:01;;;;;;;3.47;3.17;;;-4.40;96.50;;;;;;5047733;28;20211;-71
2022/12/13 01:33:29;;;;;;;2.45;2.35;;;-4.40;96.50;;;;;;5048271;28;20285;-72
2022/12/13 01:35:56;;;;;;;1.67;1.58;;;-4.40;96.50;;;;;;5048046;28;20614;-72
2022/12/13 01:38:23;;;;;;;5.18;2.72;;;-4.60;96.40;;;;;;5048029;28;20201;-71
2022/12/13 01:40:56;;;;;;;3.40;3.10;;;-4.60;96.60;;;;;;5047687;28;20664;-71
2022/12/13 01:43:25;;;;;;;1.67;1.58;;;-4.80;96.40;;;;;;5047484;28;20203;-72
2022/12/13 01:45:52;;;;;;;3.60;3.50;;;-4.80;96.70;;;;;;5047648;28;20245;-71
2022/12/13 01:48:22;;;;;;;2.30;2.13;;;-4.80;97.00;;;;;;5047974;28;20192;-71
2022/12/13 01:50:53;;;;;;;2.75;2.13;;;-4.70;97.10;;;;;;5048263;28;20215;-72
2022/12/13 01:53:24;;;;;;;2.88;2.78;;;-4.80;97.00;;;;;;5047894;28;20200;-71
2022/12/13 01:55:56;;;;;;;2.08;1.95;;;-4.80;96.90;;;;;;5047359;28;20200;-73
2022/12/13 01:58:25;;;;;;;1.13;1.02;;;-4.90;96.80;;;;;;5047494;28;20203;-71
2022/12/13 02:00:52;;;;;;;3.40;2.90;;;-4.90;96.70;;;;;;5047091;28;20195;-72
2022/12/13 02:03:21;;;;;;;4.13;2.78;;;-5.00;96.60;;;;;;5047964;28;20537;-71
2022/12/13 02:05:55;;;;;;;5.35;4.88;;;-5.00;96.60;;;;;;5045994;28;20214;-71
2022/12/13 02:08:24;;;;;;;1.55;1.50;;;-5.20;96.40;;;;;;5047057;28;20673;-72
2022/12/13 02:10:53;;;;;;;3.28;2.60;;;-5.20;96.50;;;;;;5047490;28;20194;-72
2022/12/13 02:13:20;;;;;;;1.65;1.55;;;-5.30;96.50;;;;;;5047576;28;20255;-72
2022/12/13 02:15:58;;;;;;;1.52;1.50;;;-5.20;96.60;;;;;;5047526;28;20221;-72
2022/12/13 02:18:44;;;;;;;2.05;1.95;;;-5.40;96.30;;;;;;5047380;28;20272;-71
2022/12/13 02:21:27;;;;;;;1.05;1.00;;;-5.50;96.40;;;;;;5046995;28;20243;-72
2022/12/13 02:24:31;;;;;;;2.05;1.95;;;-5.60;96.50;;;;;;5047577;28;20197;-71
2022/12/13 02:27:09;;;;;;;5.03;4.68;;;-5.50;96.70;;;;;;5046965;28;20217;-71
2022/12/13 02:30:15;;;;;;;3.05;2.95;;;-5.50;96.60;;;;;;5047840;28;20205;-71
2022/12/13 02:32:59;;;;;;;1.25;1.25;;;-5.60;96.50;;;;;;5038098;28;20209;-71
2022/12/13 02:35:36;;;;;;;1.50;1.40;;;-5.60;96.70;;;;;;5047138;28;20207;-72
2022/12/13 02:38:13;;;;;;;1.85;1.85;;;-5.60;97.00;;;;;;5047669;28;20203;-71
2022/12/13 02:40:45;;;;;;;2.95;2.72;;;-5.60;97.10;;;;;;5047095;28;20211;-72
2022/12/13 02:43:19;;;;;;;2.65;2.45;;;-5.70;97.20;;;;;;5047571;28;20255;-71
2022/12/13 02:45:53;;;;;;;3.10;2.88;;;-5.70;97.20;;;;;;5047209;28;20738;-71
2022/12/13 02:48:27;;;;;;;4.72;2.60;;;-5.70;97.20;;;;;;5047571;28;20204;-72
2022/12/13 02:50:58;;;;;;;3.00;2.90;;;-5.70;97.20;;;;;;5047245;28;20250;-71
2022/12/13 02:53:27;;;;;;;3.35;3.00;;;-5.80;97.30;;;;;;5047414;28;20201;-71
2022/12/13 02:55:55;;;;;;;0.82;0.82;;;-5.80;97.40;;;;;;5047244;28;20577;-71
2022/12/13 02:58:27;;;;;;;1.77;1.77;;;-5.80;97.30;;;;;;5046820;28;20202;-71
2022/12/13 03:01:12;;;;;;;2.50;2.30;;;-5.90;97.30;;;;;;5047003;28;20261;-71
2022/12/13 03:03:46;;;;;;;2.55;2.35;;;-5.90;97.30;;;;;;5047218;28;20584;-72
2022/12/13 03:06:30;;;;;;;6.47;2.03;;;-5.80;97.30;;;;;;5046950;28;20218;-71
2022/12/13 03:09:07;;;;;;;4.43;3.17;;;-6.00;96.90;;;;;;5046882;28;20206;-71
2022/12/13 03:14:39;;;;;;;4.10;3.80;;;-6.00;96.80;;;;;;5049993;28;20662;-71
2022/12/13 03:17:11;;;;;;;0.70;0.70;;;-6.00;96.80;;;;;;5049975;28;20227;-71
2022/12/13 03:19:38;;;;;;;3.25;1.60;;;-6.00;96.70;;;;;;5050411;28;20209;-72
2022/12/13 03:22:07;;;;;;;0.88;0.88;;;-6.00;96.70;;;;;;5050882;28;20207;-72
2022/12/13 03:24:34;;;;;;;4.53;4.13;;;-6.10;96.70;;;;;;5050666;28;20676;-71
2022/12/13 03:27:02;;;;;;;2.63;2.45;;;-6.10;96.70;;;;;;5049786;28;20687;-71
2022/12/13 03:29:29;;;;;;;1.90;1.80;;;-6.10;96.90;;;;;;5050316;28;20208;-71
2022/12/13 03:31:56;;;;;;;5.40;1.98;;;-5.90;97.10;;;;;;5050002;28;20193;-71
2022/12/13 03:34:25;;;;;;;2.58;2.42;;;-6.00;97.00;;;;;;5050552;28;20206;-71
2022/12/13 03:36:53;;;;;;;1.55;1.50;;;-6.00;97.00;;;;;;5050063;28;20611;-71
2022/12/13 03:39:22;;;;;;;3.53;3.15;;;-6.00;97.00;;;;;;5050316;28;20207;-71
2022/12/13 03:41:51;;;;;;;1.05;1.05;;;-5.90;97.10;;;;;;5049707;28;20213;-71
2022/12/13 03:44:19;;;;;;;1.10;1.10;;;-5.90;96.90;;;;;;5049615;28;20217;-71
2022/12/13 03:46:46;;;;;;;0.60;0.60;;;-5.90;96.80;;;;;;5049845;28;20235;-71
2022/12/13 03:49:14;;;;;;;1.80;1.70;;;-5.90;96.80;;;;;;5050230;28;20564;-71
2022/12/13 03:51:43;;;;;;;3.28;2.45;;;-5.80;96.90;;;;;;5050334;28;20208;-71
2022/12/13 03:54:11;;;;;;;2.85;2.65;;;-5.80;97.00;;;;;;5050249;28;20208;-71
2022/12/13 03:56:42;;;;;;;1.58;1.48;;;-5.80;97.00;;;;;;5049297;28;20325;-71
2022/12/13 03:59:09;;;;;;;6.05;1.92;;;-5.60;97.00;;;;;;5049611;28;20349;-71
2022/12/13 04:01:36;;;;;;;2.90;2.80;;;-5.60;97.00;;;;;;5049802;28;20204;-71
2022/12/13 04:04:04;;;;;;;1.25;1.25;;;-5.60;96.80;;;;;;5049381;28;20287;-71
2022/12/13 04:06:31;;;;;;;2.35;1.55;;;-5.60;96.80;;;;;;5049523;28;20267;-71
2022/12/13 04:08:59;;;;;;;1.45;1.35;;;-5.50;96.80;;;;;;5049707;28;20197;-71
2022/12/13 04:14:10;;;;;;;1.40;1.40;;;-5.50;96.80;;;;;;5049751;28;20200;-72
2022/12/13 04:16:37;;;;;;;4.43;3.08;;;-5.50;96.80;;;;;;5049529;28;20209;-72
2022/12/13 04:19:04;;;;;;;0.63;0.63;;;-5.40;97.00;;;;;;5049103;28;20202;-71
2022/12/13 04:21:31;;;;;;;1.27;1.27;;;-5.30;96.80;;;;;;5045461;28;20685;-71
2022/12/13 04:23:59;;;;;;;1.20;1.20;;;-5.20;96.50;;;;;;5048711;28;20200;-71
2022/12/13 04:26:26;;;;;;;1.77;1.67;;;-5.20;96.20;;;;;;5049024;28;20243;-71
2022/12/13 04:28:52;;;;;;;2.80;2.70;;;-5.20;96.10;;;;;;5049081;28;20543;-71
2022/12/13 04:31:19;;;;;;;2.92;2.75;;;-5.20;96.20;;;;;;5049435;28;20479;-72
2022/12/13 04:33:46;;;;;;;0.93;0.93;;;-5.20;96.10;;;;;;5049258;28;20250;-71
2022/12/13 04:36:18;;;;;;;1.58;1.48;;;-5.10;96.00;;;;;;5049123;28;20676;-71
2022/12/13 04:38:45;;;;;;;0.90;0.90;;;-5.10;95.90;;;;;;5049142;28;20188;-72
2022/12/13 04:41:16;;;;;;;2.63;2.25;;;-5.10;96.00;;;;;;5049572;28;20212;-72
2022/12/13 04:43:43;;;;;;;1.40;1.30;;;-5.20;95.90;;;;;;5048753;28;20545;-71
2022/12/13 04:46:10;;;;;;;1.85;1.48;;;-5.20;96.10;;;;;;5048739;28;20229;-72
2022/12/13 04:48:37;;;;;;;1.40;1.30;;;-5.10;96.10;;;;;;5049088;28;20200;-72
2022/12/13 04:51:04;;;;;;;3.55;3.28;;;-5.10;95.80;;;;;;5048383;28;20408;-71
2022/12/13 04:53:31;;;;;;;2.72;2.53;;;-5.00;95.90;;;;;;5049115;28;20199;-72
2022/12/13 04:55:58;;;;;;;1.50;1.40;;;-5.00;95.80;;;;;;5048737;28;20207;-71
2022/12/13 04:58:27;;;;;;;1.75;1.45;;;-5.00;95.60;;;;;;5049020;28;20201;-71
2022/12/13 05:00:53;;;;;;;3.85;3.35;;;-5.00;95.60;;;;;;5048213;28;20194;-72
2022/12/13 05:03:20;;;;;;;0.90;0.90;;;-5.00;95.50;;;;;;5048474;28;20317;-72
2022/12/13 05:05:47;;;;;;;1.38;1.38;;;-5.00;95.60;;;;;;5048068;28;20319;-72
2022/12/13 05:08:14;;;;;;;13.57;2.05;;;-5.00;95.50;;;;;;5048441;28;20197;-72
2022/12/13 05:10:41;;;;;;;1.00;1.00;;;-4.90;95.50;;;;;;5048731;28;20216;-72
2022/12/13 05:13:08;;;;;;;1.63;1.52;;;-4.90;95.30;;;;;;5048695;28;20210;-71
2022/12/13 05:15:36;;;;;;;2.25;2.17;;;-4.90;95.60;;;;;;5048234;28;20240;-71
2022/12/13 05:18:04;;;;;;;2.95;2.53;;;-4.90;95.20;;;;;;5047982;28;20208;-72
2022/12/13 05:20:31;;;;;;;1.13;1.13;;;-4.90;95.30;;;;;;5048625;28;20204;-71
2022/12/13 05:22:58;;;;;;;1.00;1.00;;;-5.10;95.20;;;;;;5048568;28;20199;-71
2022/12/13 05:25:25;;;;;;;2.22;1.92;;;-5.10;95.40;;;;;;5048589;28;20207;-72
2022/12/13 05:27:53;;;;;;;2.05;1.98;;;-5.20;95.50;;;;;;5047592;28;20238;-72
2022/12/13 05:30:20;;;;;;;1.67;1.35;;;-5.30;95.50;;;;;;5048169;28;20712;-71
2022/12/13 05:32:48;;;;;;;2.97;2.83;;;-5.30;95.70;;;;;;5047630;28;20202;-71
2022/12/13 05:35:16;;;;;;;2.95;1.67;;;-5.20;95.80;;;;;;5047321;28;20909;-71
2022/12/13 05:37:42;;;;;;;1.63;1.52;;;-5.20;95.70;;;;;;5048064;28;20193;-71
2022/12/13 05:40:10;;;;;;;4.10;1.77;;;-5.30;95.70;;;;;;5048130;28;20632;-71
2022/12/13 05:42:38;;;;;;;2.30;2.20;;;-5.20;95.60;;;;;;5044654;28;20284;-73
2022/12/13 05:45:07;;;;;;;1.23;1.23;;;-5.10;95.60;;;;;;5046508;28;20581;-72
2022/12/13 05:47:34;;;;;;;0.88;0.88;;;-5.10;95.50;;;;;;5046896;28;20733;-71
2022/12/13 05:50:02;;;;;;;2.92;2.72;;;-5.00;95.30;;;;;;5047661;28;20200;-71
2022/12/13 05:52:29;;;;;;;3.08;2.33;;;-5.00;95.20;;;;;;5045781;28;20208;-71
2022/12/13 05:54:56;;;;;;;1.25;1.25;;;-4.90;95.10;;;;;;5045296;28;20204;-72
2022/12/13 05:57:23;;;;;;;2.50;2.45;;;-4.90;94.90;;;;;;5036292;28;20205;-72
2022/12/13 05:59:50;;;;;;;2.13;2.00;;;-5.00;94.90;;;;;;5045501;28;20209;-71
2022/12/13 06:02:17;;;;;;;2.08;1.95;;;-5.00;95.00;;;;;;5045857;28;20211;-70
2022/12/13 06:04:44;;;;;;;1.00;1.00;;;-5.00;95.10;;;;;;5046843;28;20193;-71
2022/12/13 06:07:13;;;;;;;1.88;1.77;;;-4.90;95.00;;;;;;5046138;28;20223;-71
2022/12/13 06:09:39;;;;;;;1.15;1.15;;;-4.90;94.90;;;;;;5047439;28;20280;-70
2022/12/13 06:12:08;;;;;;;3.05;2.85;;;-4.90;94.70;;;;;;5047036;28;20231;-71
2022/12/13 06:14:35;;;;;;;6.38;1.65;;;-4.80;94.70;;;;;;5047540;28;20202;-71
2022/12/13 06:17:02;;;;;;;1.52;1.20;;;-4.80;94.70;;;;;;5046116;28;20201;-71
2022/12/13 06:19:28;;;;;;;3.22;3.00;;;-4.90;94.80;;;;;;5047301;28;20207;-71
2022/12/13 06:21:56;;;;;;;1.90;1.83;;;-5.10;94.90;;;;;;5046900;28;20209;-71
2022/12/13 06:24:24;;;;;;;0.82;0.82;;;-5.20;94.90;;;;;;5046837;28;20197;-71
2022/12/13 06:26:51;;;;;;;2.08;1.77;;;-5.30;94.80;;;;;;5028375;28;20720;-71
2022/12/13 06:29:20;;;;;;;6.65;4.43;;;-5.30;95.10;;;;;;5047474;28;20655;-71
2022/12/13 06:31:47;;;;;;;2.28;2.17;;;-5.30;95.20;;;;;;5047189;28;20788;-71
2022/12/13 06:34:14;;;;;;;3.92;3.08;;;-5.30;95.10;;;;;;5046596;28;20205;-70
2022/12/13 06:36:41;;;;;;;3.33;3.20;;;-5.20;95.10;;;;;;5045712;28;20211;-71
2022/12/13 06:39:08;;;;;;;1.98;1.40;;;-5.30;95.10;;;;;;5047009;28;20206;-71
2022/12/13 06:41:36;;;;;;;2.50;2.30;;;-5.30;95.10;;;;;;5047078;28;20527;-71
2022/12/13 06:44:03;;;;;;;1.20;1.17;;;-5.40;95.10;;;;;;5047043;28;20196;-71
2022/12/13 06:46:29;;;;;;;2.67;2.47;;;-5.40;95.20;;;;;;5049151;28;20599;-71
2022/12/13 06:48:57;;;;;;;2.25;2.15;;;-5.40;95.30;;;;;;5050782;28;20198;-71
2022/12/13 06:51:24;;;;;;;1.75;1.75;;;-5.40;95.20;;;;;;5050365;28;20196;-71
2022/12/13 06:53:50;;;;;;;5.60;3.50;;;-5.50;95.10;;;;;;5050253;28;20674;-71
2022/12/13 06:56:18;;;;;;;4.63;4.00;;;-5.50;95.10;;;;;;5038964;28;20206;-71
2022/12/13 06:58:46;;;;;;;2.03;1.98;;;-5.50;95.10;;;;;;5046518;28;20219;-71
2022/12/13 07:01:15;;;;;;;5.25;2.75;;;-5.50;95.30;;;;;;5046981;28;20296;-71
2022/12/13 07:03:42;;;;;;;4.20;3.90;;;-5.40;95.40;;;;;;5041633;28;20202;-70
2022/12/13 07:06:13;;;;;;;5.28;4.60;;;-5.50;95.30;;;;;;5048776;28;20201;-71
2022/12/13 07:08:40;;;;;;;4.63;3.97;;;-5.50;95.20;;;;;;5050088;28;20201;-71
2022/12/13 07:11:07;;;;;;;1.33;1.33;;;-5.60;95.10;;;;;;5036627;28;20236;-71
2022/12/13 07:13:34;;;;;;;1.98;1.88;;;-5.60;95.20;;;;;;5050011;28;20196;-71
2022/12/13 07:16:02;;;;;;;1.70;1.60;;;-5.60;95.10;;;;;;5049595;28;20199;-71
2022/12/13 07:18:29;;;;;;;1.35;1.35;;;-5.60;95.10;;;;;;5045294;28;20202;-71
2022/12/13 07:20:55;;;;;;;2.10;1.90;;;-5.60;94.90;;;;;;5043773;28;20193;-72
2022/12/13 07:23:22;;;;;;;1.70;1.60;;;-5.60;95.00;;;;;;5050489;28;20617;-71
2022/12/13 07:25:53;;;;;;;1.33;1.23;;;-5.60;94.80;;;;;;5049525;28;20308;-72
2022/12/13 07:28:21;;;;;;;1.70;1.70;;;-5.60;94.90;;;;;;5049910;28;20584;-71
2022/12/13 07:30:48;;;;;;;1.95;1.95;;;-5.70;94.80;;;;;;5049884;28;20731;-71
2022/12/13 07:33:16;;;;;;;1.20;1.20;;;-5.60;95.10;;;;;;5049570;28;20631;-71
2022/12/13 07:35:43;;;;;;;1.85;1.75;;;-5.70;95.30;;;;;;5046435;28;20303;-71
2022/12/13 07:38:11;;;;;;;0.98;0.98;;;-5.60;95.30;;;;;;5050145;28;20210;-71
2022/12/13 07:40:40;;;;;;;2.63;2.42;;;-5.50;95.40;;;;;;5049871;28;20241;-71
2022/12/13 07:43:07;;;;;;;0.70;0.70;;;-5.50;95.30;;;;;;5049850;28;20197;-71
2022/12/13 07:45:34;;;;;;;3.17;2.88;;;-5.40;95.20;;;;;;5049079;28;20627;-72
2022/12/13 07:48:05;;;;;;;2.28;2.17;;;-5.40;95.30;;;;;;5048789;28;20302;-71
2022/12/13 07:50:33;;;;;;;0.90;0.90;;;-5.30;95.20;;;;;;5049655;28;20207;-71
2022/12/13 07:53:05;;;;;;;1.20;1.20;;;-5.30;95.20;;;;;;5049909;28;20204;-71
2022/12/13 07:55:32;;;;;;;1.92;1.83;;;-5.20;95.30;;;;;;5049257;28;20201;-72
2022/12/13 07:58:03;;;;;;;1.00;1.00;;;-5.20;95.30;;;;;;5048931;28;20199;-72
2022/12/13 08:00:30;;;;;;;2.05;1.95;;;-5.20;95.20;;;;;;5049142;28;20211;-73
2022/12/13 08:02:57;;;;;;;1.25;1.23;;;-5.20;95.10;;;;;;5049036;28;20211;-71
2022/12/13 08:05:24;;;;;;;1.35;1.35;;;-5.20;95.00;;;;;;5049185;28;20198;-72
2022/12/13 08:07:52;;;;;;;3.22;1.98;;;-5.10;95.00;;;;;;5048355;28;20791;-72
2022/12/13 08:10:19;;;;;;;1.63;1.63;;;-5.00;95.20;;;;;;5049265;28;20202;-72
2022/12/13 08:12:46;;;;;;;1.60;1.50;;;-4.90;95.10;;;;;;5049104;28;20221;-71
2022/12/13 08:15:13;;;;;;;5.10;2.67;;;-4.80;94.80;;;;;;5049080;28;20210;-71
2022/12/13 08:17:39;;;;;;;0.93;0.93;;;-4.70;94.60;;;;;;5048473;28;20205;-72
2022/12/13 08:20:07;;;;;;;1.70;1.00;;;-4.60;94.40;;;;;;5048550;28;20201;-72
2022/12/13 08:22:34;;;;;;;1.13;1.13;;;-4.50;94.30;;;;;;5049486;28;20205;-72
2022/12/13 08:25:02;;;;;;;1.10;1.10;;;-4.40;94.20;;;;;;5048927;28;20301;-70
2022/12/13 08:27:29;;;;;;;1.20;1.20;;;-4.40;94.10;;;;;;5047759;28;20338;-71
2022/12/13 08:29:56;;;;;;;1.60;1.00;;;-4.40;94.00;;;;;;5048340;28;20318;-71
2022/12/13 08:32:23;;;;;;;8.95;2.28;;;-4.30;94.10;;;;;;5049333;28;20203;-71
2022/12/13 08:34:50;;;;;;;6.18;1.88;;;-4.20;93.90;;;;;;5048772;28;20290;-70
2022/12/13 08:37:17;;;;;;;1.50;1.50;;;-4.10;93.60;;;;;;5040816;28;20293;-71
2022/12/13 08:39:44;;;;;;;2.83;2.60;;;-4.10;93.60;;;;;;5048339;28;20199;-71
2022/12/13 08:42:14;;;;;;;1.00;1.00;;;-4.10;93.70;;;;;;5048050;28;20197;-71
2022/12/13 08:44:40;;;;;;;1.85;1.42;;;-4.00;93.80;;;;;;5049091;28;20290;-70
2022/12/13 08:47:08;;;;;;;1.67;1.67;;;-4.00;93.70;;;;;;5047487;28;20228;-71
2022/12/13 08:49:34;;;;;;;1.90;1.63;;;-4.00;94.00;;;;;;5048115;28;20245;-71
2022/12/13 08:52:01;;;;;;;1.52;1.42;;;-3.80;93.70;;;;;;5048378;28;20193;-71
2022/12/13 08:54:28;;;;;;;1.08;1.08;;;-3.60;93.20;;;;;;5048428;28;20207;-70
2022/12/13 08:56:55;;;;;;;0.60;0.60;;;-3.70;92.80;;;;;;5041840;28;20254;-71
2022/12/13 08:59:25;;;;;;;2.38;1.88;;;-3.70;92.90;;;;;;5040022;28;20296;-70
2022/12/13 09:01:52;;;;;;;5.05;4.68;;;-3.60;92.90;;;;;;5048239;28;20313;-71
2022/12/13 09:04:19;;;;;;;1.70;1.60;;;-3.60;93.00;;;;;;5048099;28;20256;-71
2022/12/13 09:06:46;;;;;;;3.20;2.22;;;-3.50;92.70;;;;;;5047061;28;20299;-70
2022/12/13 09:09:13;;;;;;;0.70;0.70;;;-3.50;92.60;;;;;;5047083;28;20230;-71
2022/12/13 09:11:40;;;;;;;0.57;0.57;;;-3.50;92.70;;;;;;5048153;28;20192;-71
2022/12/13 09:14:08;;;;;;;2.92;2.35;;;-3.40;92.80;;;;;;5048213;28;20200;-71
2022/12/13 09:16:36;;;;;;;1.88;1.30;;;-3.40;92.90;;;;;;5047103;28;20210;-71
2022/12/13 09:19:03;;;;;;;3.03;2.80;;;-3.30;92.90;;;;;;5048059;28;20194;-71
2022/12/13 09:21:30;;;;;;;1.92;1.83;;;-3.10;92.40;;;;;;5047662;28;20294;-71
2022/12/13 09:23:57;;;;;;;3.53;3.33;;;-3.10;92.40;;;;;;5047355;28;20972;-71
2022/12/13 09:26:24;;;;;;;3.33;2.78;;;-3.20;92.30;;;;;;5046946;28;20196;-71
2022/12/13 09:28:51;;;;;;;1.42;1.05;;;-3.20;92.50;;;;;;5048212;28;20233;-71
2022/12/13 09:31:19;;;;;;;1.52;1.52;;;-3.20;92.50;;;;;;5047962;28;20195;-71
2022/12/13 09:33:47;;;;;;;1.60;1.60;;;-3.10;92.70;;;;;;5047864;28;20196;-71
2022/12/13 09:36:17;;;;;;;3.75;2.83;;;-3.00;92.60;;;;;;5045682;28;20239;-71
2022/12/13 09:38:44;;;;;;;2.63;1.90;;;-3.00;92.80;;;;;;5047712;28;20698;-71
2022/12/13 09:41:18;;;;;;;1.50;1.50;;;-2.90;92.30;;;;;;5048038;28;20220;-71
2022/12/13 09:43:46;;;;;;;2.80;1.95;;;-2.90;92.20;;;;;;5047711;28;20202;-71
2022/12/13 09:46:27;;;;;;;1.10;1.05;;;-2.70;92.50;;;;;;5046416;28;20200;-71
2022/12/13 09:48:57;;;;;;;1.98;1.88;;;-2.80;92.20;;;;;;5040763;28;20234;-70
2022/12/13 09:51:25;;;;;;;2.25;2.15;;;-2.80;92.30;;;;;;5047134;28;20200;-71
2022/12/13 09:53:54;;;;;;;1.05;1.05;;;-2.80;92.40;;;;;;5047412;28;20203;-70
2022/12/13 09:56:22;;;;;;;1.80;1.70;;;-2.70;92.50;;;;;;5046239;28;20207;-71
2022/12/13 09:58:51;;;;;;;2.67;2.28;;;-2.70;92.50;;;;;;5039945;28;20223;-71
2022/12/13 10:01:19;;;;;;;2.28;1.77;;;-2.60;91.80;;;;;;5046877;28;20192;-70
2022/12/13 10:03:50;;;;;;;1.70;1.60;;;-2.60;91.90;;;;;;5047520;28;20276;-71
2022/12/13 10:06:20;;;;;;;0.98;0.98;;;-2.60;91.60;;;;;;5045917;28;20542;-71
2022/12/13 10:08:50;;;;;;;12.85;2.90;;;-2.50;91.70;;;;;;5047017;28;20302;-71
2022/12/13 10:11:18;;;;;;;4.90;3.72;;;-2.50;91.60;;;;;;5047346;28;20204;-72
2022/12/13 10:13:50;;;;;;;0.90;0.88;;;-2.30;91.20;;;;;;5046932;28;20192;-71
2022/12/13 10:16:24;;;;;;;1.50;1.40;;;-2.30;90.70;;;;;;5045972;28;20207;-70
2022/12/13 10:18:51;;;;;;;1.30;1.30;;;-2.40;90.90;;;;;;5047478;28;20208;-70
2022/12/13 10:21:25;;;;;;;1.02;1.02;;;-2.40;90.70;;;;;;5049373;28;20291;-70
2022/12/13 10:23:52;;;;;;;7.28;2.00;;;-2.40;90.60;;;;;;5051276;28;20207;-71
2022/12/13 10:26:19;;;;;;;2.28;2.17;;;-2.40;90.80;;;;;;5049593;28;20204;-71
2022/12/13 10:28:47;;;;;;;1.15;0.98;;;-2.30;91.10;;;;;;5051357;28;20719;-71
2022/12/13 10:31:17;;;;;;;1.27;1.27;;;-2.20;90.60;;;;;;5051179;28;20227;-70
2022/12/13 10:33:53;;;;;;;3.42;2.60;;;-2.10;90.40;;;;;;5035411;28;20539;-71
2022/12/13 10:36:33;;;;;;;1.20;1.10;;;-2.00;90.10;;;;;;5048507;28;20627;-71
2022/12/13 10:39:00;;;;;;;1.13;1.05;;;-2.00;90.30;;;;;;5050066;28;20833;-71
2022/12/13 10:41:34;;;;;;;2.50;2.33;;;-1.90;90.00;;;;;;5051374;28;20663;-71
2022/12/13 10:44:18;;;;;;;6.93;2.63;;;-2.00;89.60;;;;;;5050798;28;20200;-71
2022/12/13 10:46:50;;;;;;;1.55;1.45;;;-1.80;88.50;;;;;;5047142;28;20204;-71
2022/12/13 10:49:20;;;;;;;1.25;1.25;;;-1.80;88.30;;;;;;5048181;28;20227;-70
2022/12/13 10:51:49;;;;;;;2.85;2.75;;;-1.80;89.30;;;;;;5049787;28;20643;-71
2022/12/13 10:54:20;;;;;;;3.50;1.20;;;-1.70;88.50;;;;;;5049872;28;20196;-71
2022/12/13 10:56:50;;;;;;;0.80;0.80;;;-1.70;87.80;;;;;;5049596;28;20200;-71
2022/12/13 10:59:40;;;;;;;4.00;3.10;;;-1.70;87.40;;;;;;5037835;28;20306;-71
2022/12/13 11:02:28;;;;;;;0.77;0.77;;;-1.50;86.80;;;;;;5034952;28;20224;-71
2022/12/13 11:04:57;;;;;;;0.82;0.82;;;-1.60;86.40;;;;;;5049984;28;20188;-71
2022/12/13 11:07:28;;;;;;;1.08;0.98;;;-1.60;86.10;;;;;;5048992;28;20552;-71
2022/12/13 11:09:55;;;;;;;1.85;1.52;;;-1.70;86.70;;;;;;5049976;28;20742;-72
2022/12/13 11:12:24;;;;;;;1.20;1.20;;;-1.50;86.40;;;;;;5049181;28;20368;-71
2022/12/13 11:14:55;;;;;;;1.52;0.82;;;-1.60;86.60;;;;;;5050407;28;20284;-71
2022/12/13 11:17:24;;;;;;;2.42;2.20;;;-1.50;86.50;;;;;;5048884;28;20907;-71
2022/12/13 11:19:53;;;;;;;0.60;0.60;;;-1.50;85.60;;;;;;5049982;28;20200;-71
2022/12/13 11:22:24;;;;;;;2.10;1.95;;;-1.40;85.70;;;;;;5049891;28;20208;-71
2022/12/13 11:24:57;;;;;;;1.85;1.73;;;-1.50;84.70;;;;;;5049490;28;20595;-71
2022/12/13 11:27:40;;;;;;;0.50;0.50;;;-1.40;85.20;;;;;;5049352;28;20563;-71
2022/12/13 11:30:14;;;;;;;1.02;1.02;;;-1.40;84.90;;;;;;5048165;28;20284;-71
2022/12/13 11:33:06;;;;;;;1.70;1.60;;;-1.40;85.30;;;;;;5036546;28;20305;-71
2022/12/13 11:35:48;;;;;;;1.08;1.08;;;-1.40;84.60;;;;;;5044974;28;20212;-71
2022/12/13 11:38:25;;;;;;;0.63;0.63;;;-1.40;85.20;;;;;;5031774;28;20689;-71
2022/12/13 11:40:58;;;;;;;1.15;1.05;;;-1.40;85.70;;;;;;5049351;28;20202;-71
2022/12/13 11:43:31;;;;;;;1.67;1.00;;;-1.20;85.60;;;;;;5046045;28;20203;-71
2022/12/13 11:46:01;;;;;;;1.35;1.10;;;-1.20;84.60;;;;;;5048508;28;20203;-71
2022/12/13 11:48:36;;;;;;;1.25;1.15;;;-1.10;83.70;;;;;;5050041;28;20228;-71
2022/12/13 11:51:07;;;;;;;0.98;0.95;;;-1.20;83.30;;;;;;5049373;28;20210;-71
2022/12/13 11:53:42;;;;;;;1.15;1.05;;;-1.10;83.00;;;;;;5049156;28;20198;-71
2022/12/13 11:56:19;;;;;;;1.42;1.30;;;-1.00;82.20;;;;;;5028383;28;20563;-71
2022/12/13 11:58:54;;;;;;;1.30;1.20;;;-1.10;83.50;;;;;;5046398;28;20212;-71
2022/12/13 12:01:26;;;;;;;2.88;2.42;;;-1.10;83.40;;;;;;5045812;28;20199;-72
2022/12/13 12:04:00;;;;;;;0.80;0.80;;;-1.10;83.30;;;;;;5049296;28;20205;-71
2022/12/13 12:06:32;;;;;;;2.30;2.15;;;-1.00;82.50;;;;;;5033647;28;20205;-71
2022/12/13 12:09:01;;;;;;;1.60;1.52;;;-0.90;82.70;;;;;;5047702;28;20236;-71
2022/12/13 12:11:32;;;;;;;1.95;1.85;;;-0.90;81.10;;;;;;5049050;28;20319;-72
2022/12/13 12:14:04;;;;;;;1.38;1.08;;;-1.00;81.50;;;;;;5048539;28;20201;-71
2022/12/13 12:16:38;;;;;;;1.60;1.20;;;-1.00;82.50;;;;;;5048518;28;20196;-70
2022/12/13 12:19:12;;;;;;;1.75;0.85;;;-0.90;82.50;;;;;;5048701;28;20213;-71
2022/12/13 12:21:54;;;;;;;1.02;1.02;;;-1.00;82.60;;;;;;5049314;28;20206;-71
2022/12/13 12:24:31;;;;;;;0.85;0.85;;;-0.90;82.30;;;;;;5049040;28;20271;-71
2022/12/13 12:27:16;;;;;;;0.95;0.95;;;-0.70;80.60;;;;;;5048017;28;20283;-71
2022/12/13 12:30:12;;;;;;;1.95;1.85;;;-0.70;80.00;;;;;;5048942;28;20634;-71
2022/12/13 12:32:44;;;;;;;2.13;2.03;;;-0.80;79.60;;;;;;5049301;28;20716;-71
2022/12/13 12:35:25;;;;;;;4.55;1.02;;;-0.80;79.90;;;;;;5048846;28;20207;-71
2022/12/13 12:38:00;;;;;;;1.40;1.30;;;-0.70;79.60;;;;;;5047777;28;20227;-72
2022/12/13 12:40:42;;;;;;;7.00;2.15;;;-0.70;80.20;;;;;;5048864;28;20287;-71
2022/12/13 12:43:18;;;;;;;0.85;0.85;;;-0.70;80.70;;;;;;5039505;28;20246;-71
2022/12/13 12:45:58;;;;;;;1.55;1.30;;;-0.70;80.90;;;;;;5047816;28;20230;-71
2022/12/13 12:49:02;;;;;;;1.02;0.98;;;-0.70;80.40;;;;;;5048978;28;20224;-71
2022/12/13 12:51:38;;;;;;;0.70;0.70;;;-0.60;79.40;;;;;;5048452;28;20192;-72
2022/12/13 12:54:19;;;;;;;0.75;0.75;;;-0.80;79.00;;;;;;5048855;28;20241;-71
2022/12/13 12:56:51;;;;;;;2.85;1.45;;;-0.70;78.00;;;;;;5031469;28;20227;-71
2022/12/13 12:59:27;;;;;;;2.63;2.40;;;-0.80;78.90;;;;;;5048327;28;20207;-71
2022/12/13 13:02:01;;;;;;;2.70;1.00;;;-0.80;80.20;;;;;;5048380;28;20195;-71
2022/12/13 13:04:34;;;;;;;2.33;1.50;;;-0.80;80.00;;;;;;5048221;28;20289;-72
2022/12/13 13:07:10;;;;;;;1.40;1.30;;;-0.70;78.90;;;;;;5047065;28;20238;-72
2022/12/13 13:09:38;;;;;;;2.20;2.00;;;-0.80;79.80;;;;;;5048205;28;20225;-72